Terminal Aerodrome Forecast
Issued by NWS Sioux Falls, SD

Home | Current Version | Previous Version | Graphics & Text | Print | Product List | Glossary On
Versions: 1 2 3 4 5 6 7 8 9 10 11 12 13 14 15 16 17 18 19 20 21 22 23 24 25 26
009
FTUS43 KFSD 270520
TAFSUX
TAF
KSUX 270520Z 2706/2806 VRB03KT P6SM SKC
     FM271100 VRB03KT P6SM BKN120
     FM271300 04005KT P6SM VCSH OVC080
     FM272000 36007KT P6SM OVC050
     FM280100 32006KT P6SM BKN050
     FM280400 VRB04KT P6SM SCT050=

USA.gov is the U.S. government's official web portal to all federal, state and local government web resources and services.